Other Surface Observations
Issued by NWS Great Falls, MT

Home | Current Version | Previous Version | Text Only | Print | Product List | Glossary On
Versions: 1 2 3 4 5 6 7 8 9 10 11 12 13 14 15 16 17 18 19 20 21 22 23 24 25 26 27 28 29 30 31 32 33 34 35 36 37 38 39 40 41 42 43 44 45 46 47 48 49 50
000
SXUS55 KTFX 301729
OSOTFX
AREA AWOS OBSERVATIONS
NATIONAL WEATHER SERVICE GREAT FALLS MT
1129 AM MDT THU MAR 30 2017

METAR KPWD 301730Z AUTO 14009KT 10SM 15/01 A2969 RMK PLENTYWOOD
METAR KPO1 301730Z AUTO 00000KT 10SM 15/02 A2969 RMK POPLAR
METAR K1S3 301730Z AUTO 28009KT 10SM 10/07 A2970 RMK FORSYTH
METAR KS71 301730Z AUTO 33004KT 10SM 13/02 A2971 RMK CHINOOK
METAR K38S 301730Z AUTO 34004G14KT 10SM 08/M02 A2979 RMK DEER LODGE
METAR K3U3 301730Z AUTO 01006KT 10SM 07/00 A2976 RMK ANACONDA
METAR K6S5 301730Z AUTO 36007KT 10SM 08/M01 A2979 RMK HAMILTON
METAR K88M 301730Z AUTO 15005KT 10SM 08/02 A2982 RMK EUREKA



USA.gov is the U.S. government's official web portal to all federal, state and local government web resources and services.